PWSweather.com
Personal Weather Stations
Station Observations
UXOLA
Alcoy, AlcoyES

AlcoyAlcoyES

Lat: 38.70299, Lon: -0.48184

Elevation: 1935

Station Type: PCE FWS-20,

http://www.fiestasalcoy.xyz

High Low Average
Temperature 46.8°F8.2°C 34.0°F1.1°C 42.6°F5.9°C
Dew Point 35.6°F2.0°C 17.9°F-7.8°C 25.4°F-3.7°C
Winds 6.9 mph 11.1 kmh Calm Calm 4.0 mph SW6.4 kmh SW
Wind Gusts 16.8 mph27.0 kmh 0.7 mph1.1 kmh 7.0 mph11.3 kmh
Humidity 85% 32% 55%
Pressure 29.59 in1002.0 mb 29.50 in999.0 mb -
Precipitation 0.00 in0.0 mm - -
Hour Temp Dew Point Humidity Winds Wind Gusts Pressure Precip Precip Rate Daily Precip Total
12:00 AM 39.7°F4.3°C 35.6°F2.0°C 85% Calm Calm 2.2 mph3.5 kmh 29.59 in1002.0 mb 0.00 in0.0 mm 0.00 in0.0 mm 0.00 in0.0 mm
12:15 AM 39.6°F4.2°C 35.1°F1.7°C 84% Calm Calm 1.6 mph2.6 kmh 29.59 in1002.0 mb 0.00 in0.0 mm 0.00 in0.0 mm 0.00 in0.0 mm
12:30 AM 39.4°F4.1°C 35.0°F1.7°C 84% 0.7 mph SE1.1 kmh SE 1.6 mph2.6 kmh 29.59 in1002.0 mb 0.00 in0.0 mm 0.00 in0.0 mm 0.00 in0.0 mm
12:45 AM 39.4°F4.1°C 35.0°F1.7°C 84% 2.2 mph WSW3.5 kmh WSW 3.1 mph5.0 kmh 29.59 in1002.0 mb 0.00 in0.0 mm 0.00 in0.0 mm 0.00 in0.0 mm
01:00 AM 39.4°F4.1°C 35.0°F1.7°C 84% 1.6 mph SW2.6 kmh SW 3.1 mph5.0 kmh 29.58 in1001.7 mb 0.00 in0.0 mm 0.00 in0.0 mm 0.00 in0.0 mm
01:15 AM 39.2°F4.0°C 34.5°F1.4°C 83% Calm Calm 3.8 mph6.1 kmh 29.59 in1002.0 mb 0.00 in0.0 mm 0.00 in0.0 mm 0.00 in0.0 mm
01:30 AM 38.7°F3.7°C 34.0°F1.1°C 83% Calm Calm 1.6 mph2.6 kmh 29.58 in1001.7 mb 0.00 in0.0 mm 0.00 in0.0 mm 0.00 in0.0 mm
01:45 AM 38.5°F3.6°C 33.8°F1.0°C 83% 1.6 mph SW2.6 kmh SW 3.1 mph5.0 kmh 29.57 in1001.4 mb 0.00 in0.0 mm 0.00 in0.0 mm 0.00 in0.0 mm
02:00 AM 38.1°F3.4°C 33.4°F0.8°C 83% 0.7 mph ESE1.1 kmh ESE 1.6 mph2.6 kmh 29.58 in1001.7 mb 0.00 in0.0 mm 0.00 in0.0 mm 0.00 in0.0 mm
02:15 AM 37.8°F3.2°C 33.1°F0.6°C 83% Calm Calm 1.6 mph2.6 kmh 29.58 in1001.7 mb 0.00 in0.0 mm 0.00 in0.0 mm 0.00 in0.0 mm
02:30 AM 37.4°F3.0°C 32.7°F0.4°C 83% 0.7 mph WSW1.1 kmh WSW 1.6 mph2.6 kmh 29.57 in1001.4 mb 0.00 in0.0 mm 0.00 in0.0 mm 0.00 in0.0 mm
02:45 AM 37.8°F3.2°C 33.4°F0.8°C 84% 1.6 mph SW2.6 kmh SW 2.2 mph3.5 kmh 29.58 in1001.7 mb 0.00 in0.0 mm 0.00 in0.0 mm 0.00 in0.0 mm
03:00 AM 37.8°F3.2°C 33.4°F0.8°C 84% Calm Calm 2.2 mph3.5 kmh 29.57 in1001.4 mb 0.00 in0.0 mm 0.00 in0.0 mm 0.00 in0.0 mm
03:15 AM 37.9°F3.3°C 33.5°F0.8°C 84% Calm Calm 0.7 mph1.1 kmh 29.57 in1001.4 mb 0.00 in0.0 mm 0.00 in0.0 mm 0.00 in0.0 mm
03:30 AM 37.8°F3.2°C 33.4°F0.8°C 84% 0.7 mph SW1.1 kmh SW 2.2 mph3.5 kmh 29.57 in1001.4 mb 0.00 in0.0 mm 0.00 in0.0 mm 0.00 in0.0 mm
03:45 AM 37.6°F3.1°C 33.2°F0.7°C 84% Calm Calm 1.6 mph2.6 kmh 29.57 in1001.4 mb 0.00 in0.0 mm 0.00 in0.0 mm 0.00 in0.0 mm
04:00 AM 37.6°F3.1°C 33.2°F0.7°C 84% 1.6 mph WSW2.6 kmh WSW 2.2 mph3.5 kmh 29.55 in1000.7 mb 0.00 in0.0 mm 0.00 in0.0 mm 0.00 in0.0 mm
04:15 AM 37.4°F3.0°C 33.0°F0.6°C 84% Calm Calm 2.2 mph3.5 kmh 29.55 in1000.7 mb 0.00 in0.0 mm 0.00 in0.0 mm 0.00 in0.0 mm
04:30 AM 36.9°F2.7°C 32.2°F0.1°C 83% Calm Calm 1.6 mph2.6 kmh 29.55 in1000.7 mb 0.00 in0.0 mm 0.00 in0.0 mm 0.00 in0.0 mm
04:45 AM 36.9°F2.7°C 32.2°F0.1°C 83% 3.1 mph W5.0 kmh W 4.5 mph7.2 kmh 29.55 in1000.7 mb 0.00 in0.0 mm 0.00 in0.0 mm 0.00 in0.0 mm
05:00 AM 36.9°F2.7°C 31.9°F-0.1°C 82% Calm Calm 3.8 mph6.1 kmh 29.55 in1000.7 mb 0.00 in0.0 mm 0.00 in0.0 mm 0.00 in0.0 mm
05:15 AM 36.9°F2.7°C 31.6°F-0.2°C 81% Calm Calm 2.2 mph3.5 kmh 29.54 in1000.3 mb 0.00 in0.0 mm 0.00 in0.0 mm 0.00 in0.0 mm
05:30 AM 36.9°F2.7°C 31.9°F-0.1°C 82% Calm Calm 2.2 mph3.5 kmh 29.54 in1000.3 mb 0.00 in0.0 mm 0.00 in0.0 mm 0.00 in0.0 mm
05:45 AM 36.5°F2.5°C 31.5°F-0.3°C 82% Calm Calm 1.6 mph2.6 kmh 29.54 in1000.3 mb 0.00 in0.0 mm 0.00 in0.0 mm 0.00 in0.0 mm
06:00 AM 36.5°F2.5°C 31.5°F-0.3°C 82% 2.2 mph W3.5 kmh W 3.8 mph6.1 kmh 29.54 in1000.3 mb 0.00 in0.0 mm 0.00 in0.0 mm 0.00 in0.0 mm
06:15 AM 36.3°F2.4°C 31.4°F-0.3°C 82% 1.6 mph WSW2.6 kmh WSW 4.5 mph7.2 kmh 29.54 in1000.3 mb 0.00 in0.0 mm 0.00 in0.0 mm 0.00 in0.0 mm
06:30 AM 36.1°F2.3°C 31.2°F-0.4°C 82% Calm Calm 3.1 mph5.0 kmh 29.55 in1000.7 mb 0.00 in0.0 mm 0.00 in0.0 mm 0.00 in0.0 mm
06:45 AM 35.6°F2.0°C 30.7°F-0.7°C 82% 0.7 mph SW1.1 kmh SW 2.2 mph3.5 kmh 29.54 in1000.3 mb 0.00 in0.0 mm 0.00 in0.0 mm 0.00 in0.0 mm
07:00 AM 35.2°F1.8°C 30.3°F-0.9°C 82% 0.7 mph SW1.1 kmh SW 3.1 mph5.0 kmh 29.54 in1000.3 mb 0.00 in0.0 mm 0.00 in0.0 mm 0.00 in0.0 mm
07:15 AM 35.1°F1.7°C 30.1°F-1.1°C 82% 0.7 mph SW1.1 kmh SW 1.6 mph2.6 kmh 29.54 in1000.3 mb 0.00 in0.0 mm 0.00 in0.0 mm 0.00 in0.0 mm
07:30 AM 34.9°F1.6°C 30.3°F-0.9°C 83% 0.7 mph NE1.1 kmh NE 1.6 mph2.6 kmh 29.53 in1000.0 mb 0.00 in0.0 mm 0.00 in0.0 mm 0.00 in0.0 mm
07:45 AM 34.3°F1.3°C 29.4°F-1.4°C 82% Calm Calm 1.6 mph2.6 kmh 29.53 in1000.0 mb 0.00 in0.0 mm 0.00 in0.0 mm 0.00 in0.0 mm
08:00 AM 34.0°F1.1°C 29.4°F-1.4°C 83% Calm Calm 2.2 mph3.5 kmh 29.53 in1000.0 mb 0.00 in0.0 mm 0.00 in0.0 mm 0.00 in0.0 mm
08:15 AM 34.3°F1.3°C 29.7°F-1.3°C 83% 1.6 mph WSW2.6 kmh WSW 3.1 mph5.0 kmh 29.53 in1000.0 mb 0.00 in0.0 mm 0.00 in0.0 mm 0.00 in0.0 mm
08:30 AM 34.5°F1.4°C 29.9°F-1.2°C 83% 1.6 mph SW2.6 kmh SW 4.5 mph7.2 kmh 29.53 in1000.0 mb 0.00 in0.0 mm 0.00 in0.0 mm 0.00 in0.0 mm
08:45 AM 34.9°F1.6°C 30.0°F-1.1°C 82% 2.2 mph SW3.5 kmh SW 3.8 mph6.1 kmh 29.53 in1000.0 mb 0.00 in0.0 mm 0.00 in0.0 mm 0.00 in0.0 mm
09:00 AM 35.6°F2.0°C 30.7°F-0.7°C 82% 3.1 mph SW5.0 kmh SW 6.9 mph11.1 kmh 29.53 in1000.0 mb 0.00 in0.0 mm 0.00 in0.0 mm 0.00 in0.0 mm
09:15 AM 37.0°F2.8°C 31.8°F-0.1°C 81% 3.8 mph SW6.1 kmh SW 5.4 mph8.7 kmh 29.53 in1000.0 mb 0.00 in0.0 mm 0.00 in0.0 mm 0.00 in0.0 mm
09:30 AM 39.0°F3.9°C 33.4°F0.8°C 80% 6.0 mph SW9.7 kmh SW 9.8 mph15.8 kmh 29.52 in999.7 mb 0.00 in0.0 mm 0.00 in0.0 mm 0.00 in0.0 mm
09:45 AM 41.0°F5.0°C 32.7°F0.4°C 72% 3.8 mph SW6.1 kmh SW 8.3 mph13.4 kmh 29.52 in999.7 mb 0.00 in0.0 mm 0.00 in0.0 mm 0.00 in0.0 mm
10:00 AM 42.1°F5.6°C 30.8°F-0.7°C 64% 4.5 mph WSW7.2 kmh WSW 9.8 mph15.8 kmh 29.52 in999.7 mb 0.00 in0.0 mm 0.00 in0.0 mm 0.00 in0.0 mm
10:15 AM 43.3°F6.3°C 30.4°F-0.9°C 60% 3.8 mph WSW6.1 kmh WSW 6.9 mph11.1 kmh 29.52 in999.7 mb 0.00 in0.0 mm 0.00 in0.0 mm 0.00 in0.0 mm
10:30 AM 44.8°F7.1°C 27.3°F-2.6°C 50% 6.9 mph WSW11.1 kmh WSW 8.3 mph13.4 kmh 29.52 in999.7 mb 0.00 in0.0 mm 0.00 in0.0 mm 0.00 in0.0 mm
10:45 AM 45.1°F7.3°C 23.4°F-4.8°C 42% 1.6 mph WSW2.6 kmh WSW 9.8 mph15.8 kmh 29.52 in999.7 mb 0.00 in0.0 mm 0.00 in0.0 mm 0.00 in0.0 mm
11:00 AM 45.9°F7.7°C 22.9°F-5.1°C 40% 3.1 mph SW5.0 kmh SW 9.2 mph14.8 kmh 29.51 in999.3 mb 0.00 in0.0 mm 0.00 in0.0 mm 0.00 in0.0 mm
11:15 AM 45.7°F7.6°C 20.9°F-6.2°C 37% 6.0 mph WSW9.7 kmh WSW 14.5 mph23.3 kmh 29.52 in999.7 mb 0.00 in0.0 mm 0.00 in0.0 mm 0.00 in0.0 mm
11:30 AM 46.0°F7.8°C 21.9°F-5.6°C 38% 6.0 mph SSW9.7 kmh SSW 15.2 mph24.5 kmh 29.51 in999.3 mb 0.00 in0.0 mm 0.00 in0.0 mm 0.00 in0.0 mm
11:45 AM 46.0°F7.8°C 20.6°F-6.3°C 36% 6.9 mph WSW11.1 kmh WSW 16.8 mph27.0 kmh 29.52 in999.7 mb 0.00 in0.0 mm 0.00 in0.0 mm 0.00 in0.0 mm
12:00 PM 46.0°F7.8°C 18.6°F-7.4°C 33% 6.0 mph SW9.7 kmh SW 16.8 mph27.0 kmh 29.52 in999.7 mb 0.00 in0.0 mm 0.00 in0.0 mm 0.00 in0.0 mm
12:15 PM 46.0°F7.8°C 17.9°F-7.8°C 32% 3.8 mph WSW6.1 kmh WSW 13.0 mph20.9 kmh 29.51 in999.3 mb 0.00 in0.0 mm 0.00 in0.0 mm 0.00 in0.0 mm
12:30 PM 46.0°F7.8°C 18.6°F-7.4°C 33% 5.4 mph SW8.7 kmh SW 10.7 mph17.2 kmh 29.50 in999.0 mb 0.00 in0.0 mm 0.00 in0.0 mm 0.00 in0.0 mm
12:45 PM 46.2°F7.9°C 18.7°F-7.4°C 33% 2.2 mph WSW3.5 kmh WSW 13.0 mph20.9 kmh 29.50 in999.0 mb 0.00 in0.0 mm 0.00 in0.0 mm 0.00 in0.0 mm
01:00 PM 46.8°F8.2°C 19.9°F-6.7°C 34% 6.9 mph SW11.1 kmh SW 8.3 mph13.4 kmh 29.50 in999.0 mb 0.00 in0.0 mm 0.00 in0.0 mm 0.00 in0.0 mm
01:15 PM 46.8°F8.2°C 19.9°F-6.7°C 34% 6.9 mph SW11.1 kmh SW 8.3 mph13.4 kmh 29.50 in999.0 mb 0.00 in0.0 mm 0.00 in0.0 mm 0.00 in0.0 mm
01:30 PM 46.8°F8.2°C 19.9°F-6.7°C 34% 6.9 mph SW11.1 kmh SW 8.3 mph13.4 kmh 29.50 in999.0 mb 0.00 in0.0 mm 0.00 in0.0 mm 0.00 in0.0 mm
01:45 PM 46.8°F8.2°C 19.9°F-6.7°C 34% 6.9 mph SW11.1 kmh SW 8.3 mph13.4 kmh 29.50 in999.0 mb 0.00 in0.0 mm 0.00 in0.0 mm 0.00 in0.0 mm
02:00 PM 46.8°F8.2°C 19.9°F-6.7°C 34% 6.9 mph SW11.1 kmh SW 8.3 mph13.4 kmh 29.50 in999.0 mb 0.00 in0.0 mm 0.00 in0.0 mm 0.00 in0.0 mm
02:15 PM 46.8°F8.2°C 19.9°F-6.7°C 34% 6.9 mph SW11.1 kmh SW 8.3 mph13.4 kmh 29.50 in999.0 mb 0.00 in0.0 mm 0.00 in0.0 mm 0.00 in0.0 mm
02:30 PM 46.8°F8.2°C 19.9°F-6.7°C 34% 6.9 mph SW11.1 kmh SW 8.3 mph13.4 kmh 29.50 in999.0 mb 0.00 in0.0 mm 0.00 in0.0 mm 0.00 in0.0 mm
02:45 PM 46.8°F8.2°C 19.9°F-6.7°C 34% 6.9 mph SW11.1 kmh SW 8.3 mph13.4 kmh 29.50 in999.0 mb 0.00 in0.0 mm 0.00 in0.0 mm 0.00 in0.0 mm
03:00 PM 46.8°F8.2°C 19.9°F-6.7°C 34% 6.9 mph SW11.1 kmh SW 8.3 mph13.4 kmh 29.50 in999.0 mb 0.00 in0.0 mm 0.00 in0.0 mm 0.00 in0.0 mm
03:15 PM 46.8°F8.2°C 19.9°F-6.7°C 34% 6.9 mph SW11.1 kmh SW 8.3 mph13.4 kmh 29.50 in999.0 mb 0.00 in0.0 mm 0.00 in0.0 mm 0.00 in0.0 mm
03:30 PM 46.8°F8.2°C 19.9°F-6.7°C 34% 6.9 mph SW11.1 kmh SW 8.3 mph13.4 kmh 29.50 in999.0 mb 0.00 in0.0 mm 0.00 in0.0 mm 0.00 in0.0 mm
03:45 PM 46.8°F8.2°C 19.9°F-6.7°C 34% 6.9 mph SW11.1 kmh SW 8.3 mph13.4 kmh 29.50 in999.0 mb 0.00 in0.0 mm 0.00 in0.0 mm 0.00 in0.0 mm
04:00 PM 46.8°F8.2°C 19.9°F-6.7°C 34% 6.9 mph SW11.1 kmh SW 8.3 mph13.4 kmh 29.50 in999.0 mb 0.00 in0.0 mm 0.00 in0.0 mm 0.00 in0.0 mm
04:15 PM 46.8°F8.2°C 19.9°F-6.7°C 34% 6.9 mph SW11.1 kmh SW 8.3 mph13.4 kmh 29.50 in999.0 mb 0.00 in0.0 mm 0.00 in0.0 mm 0.00 in0.0 mm
04:30 PM 46.8°F8.2°C 19.9°F-6.7°C 34% 6.9 mph SW11.1 kmh SW 8.3 mph13.4 kmh 29.50 in999.0 mb 0.00 in0.0 mm 0.00 in0.0 mm 0.00 in0.0 mm
04:45 PM 46.8°F8.2°C 19.9°F-6.7°C 34% 6.9 mph SW11.1 kmh SW 8.3 mph13.4 kmh 29.50 in999.0 mb 0.00 in0.0 mm 0.00 in0.0 mm 0.00 in0.0 mm
05:00 PM 46.8°F8.2°C 19.9°F-6.7°C 34% 6.9 mph SW11.1 kmh SW 8.3 mph13.4 kmh 29.50 in999.0 mb 0.00 in0.0 mm 0.00 in0.0 mm 0.00 in0.0 mm
05:15 PM 46.8°F8.2°C 19.9°F-6.7°C 34% 6.9 mph SW11.1 kmh SW 8.3 mph13.4 kmh 29.50 in999.0 mb 0.00 in0.0 mm 0.00 in0.0 mm 0.00 in0.0 mm
05:30 PM 46.8°F8.2°C 19.9°F-6.7°C 34% 6.9 mph SW11.1 kmh SW 8.3 mph13.4 kmh 29.50 in999.0 mb 0.00 in0.0 mm 0.00 in0.0 mm 0.00 in0.0 mm
05:45 PM 46.8°F8.2°C 19.9°F-6.7°C 34% 6.9 mph SW11.1 kmh SW 8.3 mph13.4 kmh 29.50 in999.0 mb 0.00 in0.0 mm 0.00 in0.0 mm 0.00 in0.0 mm
06:00 PM 46.8°F8.2°C 19.9°F-6.7°C 34% 6.9 mph SW11.1 kmh SW 8.3 mph13.4 kmh 29.50 in999.0 mb 0.00 in0.0 mm 0.00 in0.0 mm 0.00 in0.0 mm
06:15 PM 46.8°F8.2°C 19.9°F-6.7°C 34% 6.9 mph SW11.1 kmh SW 8.3 mph13.4 kmh 29.50 in999.0 mb 0.00 in0.0 mm 0.00 in0.0 mm 0.00 in0.0 mm
06:30 PM 46.8°F8.2°C 19.9°F-6.7°C 34% 6.9 mph SW11.1 kmh SW 8.3 mph13.4 kmh 29.50 in999.0 mb 0.00 in0.0 mm 0.00 in0.0 mm 0.00 in0.0 mm
06:45 PM 46.8°F8.2°C 19.9°F-6.7°C 34% 6.9 mph SW11.1 kmh SW 8.3 mph13.4 kmh 29.50 in999.0 mb 0.00 in0.0 mm 0.00 in0.0 mm 0.00 in0.0 mm
07:00 PM 46.8°F8.2°C 19.9°F-6.7°C 34% 6.9 mph SW11.1 kmh SW 8.3 mph13.4 kmh 29.50 in999.0 mb 0.00 in0.0 mm 0.00 in0.0 mm 0.00 in0.0 mm
07:15 PM 46.8°F8.2°C 19.9°F-6.7°C 34% 6.9 mph SW11.1 kmh SW 8.3 mph13.4 kmh 29.50 in999.0 mb 0.00 in0.0 mm 0.00 in0.0 mm 0.00 in0.0 mm
07:30 PM 46.8°F8.2°C 19.9°F-6.7°C 34% 6.9 mph SW11.1 kmh SW 8.3 mph13.4 kmh 29.50 in999.0 mb 0.00 in0.0 mm 0.00 in0.0 mm 0.00 in0.0 mm
07:45 PM 46.8°F8.2°C 19.9°F-6.7°C 34% 6.9 mph SW11.1 kmh SW 8.3 mph13.4 kmh 29.50 in999.0 mb 0.00 in0.0 mm 0.00 in0.0 mm 0.00 in0.0 mm
08:00 PM 46.8°F8.2°C 19.9°F-6.7°C 34% 6.9 mph SW11.1 kmh SW 8.3 mph13.4 kmh 29.50 in999.0 mb 0.00 in0.0 mm 0.00 in0.0 mm 0.00 in0.0 mm
08:15 PM 46.8°F8.2°C 19.9°F-6.7°C 34% 6.9 mph SW11.1 kmh SW 8.3 mph13.4 kmh 29.50 in999.0 mb 0.00 in0.0 mm 0.00 in0.0 mm 0.00 in0.0 mm
08:30 PM 46.8°F8.2°C 19.9°F-6.7°C 34% 6.9 mph SW11.1 kmh SW 8.3 mph13.4 kmh 29.50 in999.0 mb 0.00 in0.0 mm 0.00 in0.0 mm 0.00 in0.0 mm
08:45 PM 46.8°F8.2°C 19.9°F-6.7°C 34% 6.9 mph SW11.1 kmh SW 8.3 mph13.4 kmh 29.50 in999.0 mb 0.00 in0.0 mm 0.00 in0.0 mm 0.00 in0.0 mm
09:00 PM 46.8°F8.2°C 19.9°F-6.7°C 34% 6.9 mph SW11.1 kmh SW 8.3 mph13.4 kmh 29.50 in999.0 mb 0.00 in0.0 mm 0.00 in0.0 mm 0.00 in0.0 mm
09:15 PM 46.8°F8.2°C 19.9°F-6.7°C 34% 6.9 mph SW11.1 kmh SW 8.3 mph13.4 kmh 29.50 in999.0 mb 0.00 in0.0 mm 0.00 in0.0 mm 0.00 in0.0 mm
09:30 PM 46.8°F8.2°C 19.9°F-6.7°C 34% 6.9 mph SW11.1 kmh SW 8.3 mph13.4 kmh 29.50 in999.0 mb 0.00 in0.0 mm 0.00 in0.0 mm 0.00 in0.0 mm
09:45 PM 46.8°F8.2°C 19.9°F-6.7°C 34% 6.9 mph SW11.1 kmh SW 8.3 mph13.4 kmh 29.50 in999.0 mb 0.00 in0.0 mm 0.00 in0.0 mm 0.00 in0.0 mm
10:00 PM 46.8°F8.2°C 19.9°F-6.7°C 34% 6.9 mph SW11.1 kmh SW 8.3 mph13.4 kmh 29.50 in999.0 mb 0.00 in0.0 mm 0.00 in0.0 mm 0.00 in0.0 mm
10:15 PM 46.8°F8.2°C 19.9°F-6.7°C 34% 6.9 mph SW11.1 kmh SW 8.3 mph13.4 kmh 29.50 in999.0 mb 0.00 in0.0 mm 0.00 in0.0 mm 0.00 in0.0 mm
10:30 PM 46.8°F8.2°C 19.9°F-6.7°C 34% 6.9 mph SW11.1 kmh SW 8.3 mph13.4 kmh 29.50 in999.0 mb 0.00 in0.0 mm 0.00 in0.0 mm 0.00 in0.0 mm
10:45 PM 46.8°F8.2°C 19.9°F-6.7°C 34% 6.9 mph SW11.1 kmh SW 8.3 mph13.4 kmh 29.50 in999.0 mb 0.00 in0.0 mm 0.00 in0.0 mm 0.00 in0.0 mm
11:00 PM 46.8°F8.2°C 19.9°F-6.7°C 34% 6.9 mph SW11.1 kmh SW 8.3 mph13.4 kmh 29.50 in999.0 mb 0.00 in0.0 mm 0.00 in0.0 mm 0.00 in0.0 mm
11:15 PM 46.8°F8.2°C 19.9°F-6.7°C 34% 6.9 mph SW11.1 kmh SW 8.3 mph13.4 kmh 29.50 in999.0 mb 0.00 in0.0 mm 0.00 in0.0 mm 0.00 in0.0 mm
11:30 PM 46.8°F8.2°C 19.9°F-6.7°C 34% 6.9 mph SW11.1 kmh SW 8.3 mph13.4 kmh 29.50 in999.0 mb 0.00 in0.0 mm 0.00 in0.0 mm 0.00 in0.0 mm
11:45 PM 46.8°F8.2°C 19.9°F-6.7°C 34% 6.9 mph SW11.1 kmh SW 8.3 mph13.4 kmh 29.50 in999.0 mb 0.00 in0.0 mm 0.00 in0.0 mm 0.00 in0.0 mm